West Colesville, New York
Current Conditions -  °F | °C
As of 6:53 PM on Friday 21 Nov 2014 (Local Time) from KBGM Reporting Station
Broken Clouds Broken Clouds  
Wind Chill: 22°   Ceiling: 4500
Heat Index: 22°   Visibility: 10mi
Dew Point: 10°   Wind: 0mph
Humidity: 60%   Direction: NA
Pressure: 30.37"   Gusts: NA
Location:  42.133°N, 75.8266°W
Report Text: KBGM 212353Z 00000KT 10SM BKN045 M06/M12 A3037 RMK AO2 SLP312 60000 T10561122 11028 21061 51014
Loading
Personal Weather Stations






























Interactive Weather Map New forecast layout! Learn more

10-Day Weather Forecast

Advertisements
Track Severe Weather on mobile